Historyczne dane pomiarowe

Dodano dane terminowe – wersja testowa.

Dane z okresu 1951-2019

Wersja bazy: 1.34 [2019-03-16, lista zmian], aktualizacja planowana na 2019-04-15

Dane meteo z obszaru Polski uzyskane na podstawie danych udostępnionych przez Instytut Meteorologii i Gospodarki Wodnej – Państwowy Instytut Badawczy.

 

Wybierz Datę:    

       

TemperaturaWilgotnośćWiatrCiśnienieOpadyŚniegCzas trwania zjawisk
 Stacja t tx tn tng RH VA  wxwx mslp ppp RRR   cm mm wxwxwxwxwxwxwx
1983-08-14 11.2 14.6 7.1 2.4 76.0- 6.3 1.3---- 0.0------------
1983-08-13 13.3 18.2 9.9 7.9 74.5- 6.3 2.7---- 8.2------------
1983-08-12 15.8 22.7 10.9 7.0 83.8- 5.3 0.7---- 0.0------------
1983-08-11 15.1 21.2 10.9 7.5 89.8- 6.3 0.7---- 11.7------------
1983-08-10 16.0 21.2 11.4 7.9 83.8- 4.3 0.7---- 0.0------------
1983-08-09 15.2 22.2 10.4 7.0 87.8- 4.7 1.3---- 2.0------------
1983-08-08 15.3 19.4 11.5 8.7 87.5- 6.7 0.0---- 2.8------------
1983-08-07 12.3 16.3 10.5 6.9 96.8- 8.0 0.0---- 1.9------------
1983-08-06 12.1 14.7 8.4 5.0 82.8- 7.3 0.7---- 1.3------------
1983-08-05 10.3 13.9 5.0 2.1 80.8- 4.7 2.0---- 0.0------------
1983-08-04 9.0 16.2 8.4 8.1 93.3- 8.0 0.0---- 4.4------------
1983-08-03 16.9 22.7 14.9 10.4 78.8- 4.3 1.3---- 3.0------------
1983-08-02 19.7 24.2 15.5 10.7 73.8- 5.7 0.7---- 2.9------------
1983-08-01 17.9 27.6 7.9 3.5 69.8- 0.7 0.7---- 0.0------------
1983-07-31 16.5 21.7 7.4 7.0 72.0- 2.0 1.3---- 0.0------------
1983-07-30 15.7 18.7 12.9 11.9 85.3- 5.7 0.7---- 0.9------------
1983-07-29 16.8 20.4 11.4 7.0 73.8- 4.7 1.3---- 7.6------------
1983-07-28 20.3 24.7 16.5 12.4 66.0- 2.0 2.7---- 0.0------------
1983-07-27 18.0 28.6 10.9 7.0 74.8- 0.7 0.7---- 0.0------------
1983-07-26 17.2 23.7 10.9 7.5 67.5- 3.3 1.3---- 0.0------------
1983-07-25 13.7 17.7 9.9 7.9 76.8- 4.3 0.0---- 0.0------------
1983-07-24 15.1 20.2 8.9 5.5 76.8- 2.0 1.3---- 3.6------------
1983-07-23 14.2 18.2 11.0 2.1 79.3- 6.0 1.3---- 0.0------------
1983-07-22 10.2 12.6 6.4 2.1 79.3- 8.0 3.3---- 11.8------------
1983-07-21 9.5 11.9 6.4 4.0 70.0- 6.0 4.7---- 0.9------------
1983-07-20 14.9 23.0 9.9 8.9 81.3- 7.0 1.3---- 7.2------------
1983-07-19 21.1 26.1 14.1 9.9 61.0- 3.7 2.0---- 0.0------------
1983-07-18 19.8 28.1 11.9 7.5 70.5- 0.7 1.3---- 0.0------------
1983-07-17 18.2 23.7 11.5 7.9 75.3- 2.7 0.7---- 0.0------------
1983-07-16 17.9 24.7 10.3 6.5 67.8- 3.0 1.3---- 0.0------------
1983-07-15 16.8 20.7 11.9 8.9 79.3- 4.7 1.3---- 0.0------------
1983-07-14 14.6 20.0 12.4 10.7 93.0- 8.0 0.0---- 30.7------------
1983-07-13 17.3 21.7 12.9 10.9 77.5- 6.0 2.0---- 10.8------------
1983-07-12 15.3 19.7 11.9 8.7 89.8- 6.3 0.0---- 8.3------------
1983-07-11 16.4 22.2 9.7 7.5 80.0- 5.0 1.3---- 4.9------------
1983-07-10 17.8 24.7 8.6 6.0 67.5- 1.3 0.7---- 0.0------------
1983-07-09 15.9 23.2 5.7 1.1 70.3- 1.7 0.7---- 0.0------------
1983-07-08 17.8 22.7 9.9 4.5 62.5- 0.0 1.3---- 0.0------------
1983-07-07 19.5 24.7 11.9 7.5 72.3- 2.3 1.3---- 0.0------------
1983-07-06 18.9 24.7 10.7 6.0 68.8- 2.0 1.3---- 0.0------------
1983-07-05 16.8 23.0 9.4 4.0 73.8- 4.7 0.7---- 0.0------------
1983-07-04 16.3 22.2 8.9 4.0 72.3- 2.0 1.3---- 0.0------------
1983-07-03 16.2 20.2 9.9 5.0 74.3- 4.0 2.0---- 0.0------------
1983-07-02 14.4 18.2 10.9 6.2 88.5- 7.3 0.7---- 0.0------------
1983-07-01 16.1 22.7 8.4 3.5 70.5- 3.3 0.7---- 0.0------------
1983-06-30 13.0 20.2 4.5 -0.4 73.0- 2.0 0.7---- 0.0------------
1983-06-29 10.9 15.4 5.4 1.6 74.5- 4.7 0.7---- 0.0------------
1983-06-28 13.6 18.7 9.4 9.4 91.8- 8.0 0.7---- 3.7------------
1983-06-27 17.5 25.1 11.3 6.6 74.0- 4.7 0.7---- 20.5------------
1983-06-26 18.7 22.7 13.4 8.4 70.0- 3.7 0.7---- 0.0------------
1983-06-25 18.0 24.4 9.4 3.8 63.8- 0.3 1.3---- 0.0------------
1983-06-24 15.8 23.7 6.4 1.1 65.0- 1.0 0.0---- 0.0------------
1983-06-23 11.4 18.6 2.0 -1.9 66.3- 3.0 2.7---- 0.0------------
1983-06-22 13.2 19.0 8.2 4.0 74.5- 3.3 2.0---- 0.0------------
1983-06-21 16.8 21.7 9.4 5.0 79.8- 3.3 0.0---- 0.0------------
1983-06-20 14.3 15.7 12.4 11.4 99.8- 7.0 0.0---- 4.2------------
1983-06-19 11.4 14.1 8.9 8.7 99.0- 8.0 0.0----112.6------------
1983-06-18 9.8 14.0 6.7 6.5 95.0- 8.0 0.0---- 24.4------------
1983-06-17 8.1 10.1 6.7 6.5 82.5- 8.0 0.0---- 19.0------------
1983-06-16 7.7 9.8 5.9 5.8 93.8- 8.0 0.0---- 7.8------------
272.3 ms

 

Źródłem pochodzenia danych jest Instytut Meteorologii i Gospodarki Wodnej – Państwowy Instytut Badawczy. Dane Instytutu Meteorologii i Gospodarki Wodnej – Państwowego Instytutu Badawczego zostały przetworzone.

Dane źródłowe można odnaleźć na stronie https://dane.imgw.pl